Time;durP1;ratioP1;P1;durP2;ratioP2;P2;SDS_P1;SDS_P2;PMS_P1;PMS_P2;Temp;Humidity;BMP_temperature;BMP_pressure;BME280_temperature;BME280_humidity;BME280_pressure;Samples;Min_cycle;Max_cycle;Signal;HPM_P1;HPM_P2
2022/12/16 00:01:38;;;;;;;51.55;31.05;;;;;;;;;;4931382;29;20066;-76
2022/12/16 00:04:04;;;;;;;64.60;41.53;;;;;;;;;;4929358;29;20340;-74
2022/12/16 00:06:33;;;;;;;52.65;34.42;;;;;;;;;;4929846;28;20096;-75
2022/12/16 00:09:00;;;;;;;55.70;34.70;;;;;;;;;;4945201;28;20069;-76
2022/12/16 00:11:26;;;;;;;60.25;35.38;;;;;;;;;;4929608;29;20047;-77
2022/12/16 00:13:52;;;;;;;66.38;38.20;;;;;;;;;;4929072;29;20032;-77
2022/12/16 00:16:20;;;;;;;58.58;38.83;;;;;;;;;;4931200;29;20039;-77
2022/12/16 00:18:47;;;;;;;63.50;39.65;;;;;;;;;;4931155;29;20032;-78
2022/12/16 00:21:13;;;;;;;71.72;42.70;;;;;;;;;;4931728;28;20079;-77
2022/12/16 00:23:43;;;;;;;72.28;42.65;;;;;;;;;;4945869;29;20063;-78
2022/12/16 00:26:10;;;;;;;73.57;42.58;;;;;;;;;;4931144;29;20206;-77
2022/12/16 00:28:36;;;;;;;73.95;45.13;;;;;;;;;;4937545;29;20151;-76
2022/12/16 00:31:02;;;;;;;74.70;46.13;;;;;;;;;;4953921;29;20145;-77
2022/12/16 00:33:29;;;;;;;76.07;46.40;;;;;;;;;;4935335;29;20023;-75
2022/12/16 00:35:55;;;;;;;73.28;45.55;;;;;;;;;;4935449;29;20059;-77
2022/12/16 00:38:22;;;;;;;70.75;42.60;;;;;;;;;;4930270;29;20523;-77
2022/12/16 00:40:49;;;;;;;79.18;45.05;;;;;;;;;;4935651;29;20078;-76
2022/12/16 00:43:15;;;;;;;76.47;43.42;;;;;;;;;;4936080;29;20055;-76
2022/12/16 00:45:41;;;;;;;78.75;44.80;;;;;;;;;;4932997;29;20031;-75
2022/12/16 00:48:07;;;;;;;73.60;42.70;;;;;;;;;;4949338;29;20122;-75
2022/12/16 00:50:34;;;;;;;81.88;44.90;;;;;;;;;;4931510;29;20035;-77
2022/12/16 00:53:00;;;;;;;79.57;44.88;;;;;;;;;;4930207;29;20027;-77
2022/12/16 00:55:26;;;;;;;80.97;42.72;;;;;;;;;;4932410;29;20023;-77
2022/12/16 00:57:52;;;;;;;88.35;46.35;;;;;;;;;;4933614;29;20027;-76
2022/12/16 01:00:18;;;;;;;91.35;50.25;;;;;;;;;;4932768;29;20481;-77
2022/12/16 01:02:47;;;;;;;93.55;50.03;;;;;;;;;;4930836;29;20561;-77
2022/12/16 01:05:16;;;;;;;105.70;53.22;;;;;;;;;;4929275;29;20049;-77
2022/12/16 01:07:43;;;;;;;105.68;56.35;;;;;;;;;;4930314;29;20063;-77
2022/12/16 01:10:09;;;;;;;117.32;57.25;;;;;;;;;;4931939;29;20063;-77
2022/12/16 01:12:36;;;;;;;104.97;52.38;;;;;;;;;;4929576;29;20019;-76
2022/12/16 01:15:04;;;;;;;115.95;56.20;;;;;;;;;;4929004;29;20050;-76
2022/12/16 01:17:30;;;;;;;102.70;52.15;;;;;;;;;;4929295;29;20797;-76
2022/12/16 01:19:56;;;;;;;80.95;43.33;;;;;;;;;;4929471;29;20130;-76
2022/12/16 01:22:22;;;;;;;77.03;42.22;;;;;;;;;;4928834;29;20095;-77
2022/12/16 01:24:48;;;;;;;64.10;38.75;;;;;;;;;;4928856;29;20048;-76
2022/12/16 01:27:14;;;;;;;70.38;39.03;;;;;;;;;;4939262;28;20059;-76
2022/12/16 01:29:40;;;;;;;57.10;33.55;;;;;;;;;;4931355;29;20035;-76
2022/12/16 01:32:10;;;;;;;43.42;28.88;;;;;;;;;;4930280;29;20074;-77
2022/12/16 01:34:36;;;;;;;56.25;32.60;;;;;;;;;;4923716;29;20541;-75
2022/12/16 01:37:02;;;;;;;57.40;34.35;;;;;;;;;;4934126;29;20024;-77
2022/12/16 01:39:29;;;;;;;54.50;33.47;;;;;;;;;;4933308;29;20031;-76
2022/12/16 01:41:55;;;;;;;53.25;31.58;;;;;;;;;;4934671;29;20449;-77
2022/12/16 01:44:25;;;;;;;50.67;31.58;;;;;;;;;;4927592;29;20040;-77
2022/12/16 01:47:00;;;;;;;44.25;29.13;;;;;;;;;;4934412;29;20044;-76
2022/12/16 01:49:40;;;;;;;45.75;31.13;;;;;;;;;;4933302;29;20036;-77
2022/12/16 01:52:14;;;;;;;51.28;30.90;;;;;;;;;;4932975;29;20095;-77
2022/12/16 01:54:51;;;;;;;54.78;32.17;;;;;;;;;;4935117;29;20532;-77
2022/12/16 01:57:23;;;;;;;49.72;30.77;;;;;;;;;;4939780;28;20142;-77
2022/12/16 01:59:51;;;;;;;50.13;33.17;;;;;;;;;;4939749;28;20091;-77
2022/12/16 02:02:17;;;;;;;51.42;33.40;;;;;;;;;;4934593;29;20058;-77
2022/12/16 02:07:28;;;;;;;79.55;42.53;;;;;;;;;;4935435;29;20042;-76
2022/12/16 02:09:55;;;;;;;93.45;48.78;;;;;;;;;;4935193;29;20643;-76
2022/12/16 02:13:01;;;;;;;101.18;49.35;;;;;;;;;;4933777;29;20039;-76
2022/12/16 02:15:50;;;;;;;95.00;48.92;;;;;;;;;;4933715;28;20102;-76
2022/12/16 02:18:38;;;;;;;104.50;48.92;;;;;;;;;;4934895;29;20482;-77
2022/12/16 02:21:15;;;;;;;108.07;48.50;;;;;;;;;;4934932;29;20042;-76
2022/12/16 02:24:13;;;;;;;108.00;47.03;;;;;;;;;;4934330;29;20114;-76
2022/12/16 02:26:54;;;;;;;103.13;50.05;;;;;;;;;;4932776;28;20079;-76
2022/12/16 02:29:53;;;;;;;103.10;48.55;;;;;;;;;;4926733;29;20028;-76
2022/12/16 02:32:24;;;;;;;85.15;43.38;;;;;;;;;;4935019;29;20040;-76
2022/12/16 02:35:12;;;;;;;68.45;35.72;;;;;;;;;;4934649;29;20035;-75
2022/12/16 02:37:51;;;;;;;73.25;35.53;;;;;;;;;;4922039;29;20059;-77
2022/12/16 02:40:31;;;;;;;75.22;35.92;;;;;;;;;;4944450;29;20462;-77
2022/12/16 02:43:06;;;;;;;57.60;31.98;;;;;;;;;;4933703;29;20540;-76
2022/12/16 02:45:33;;;;;;;60.65;29.15;;;;;;;;;;4934708;29;20043;-77
2022/12/16 02:47:59;;;;;;;44.00;24.90;;;;;;;;;;4935653;29;20044;-77
2022/12/16 02:50:39;;;;;;;42.08;23.02;;;;;;;;;;4929225;29;20079;-77
2022/12/16 02:53:08;;;;;;;31.60;17.90;;;;;;;;;;4927215;29;20031;-77
2022/12/16 02:55:56;;;;;;;36.00;19.50;;;;;;;;;;4934513;29;20016;-77
2022/12/16 02:58:33;;;;;;;28.33;16.63;;;;;;;;;;4934316;28;20043;-77
2022/12/16 03:01:32;;;;;;;26.90;16.48;;;;;;;;;;4934413;29;20044;-77
2022/12/16 03:04:09;;;;;;;22.60;12.30;;;;;;;;;;4932541;29;20504;-77
2022/12/16 03:06:39;;;;;;;19.30;11.73;;;;;;;;;;4933177;29;20048;-76
2022/12/16 03:09:09;;;;;;;19.67;11.80;;;;;;;;;;4934321;29;20036;-76
2022/12/16 03:11:38;;;;;;;21.40;12.20;;;;;;;;;;4934472;29;20106;-76
2022/12/16 03:14:07;;;;;;;20.48;12.05;;;;;;;;;;4934714;29;20073;-77
2022/12/16 03:16:33;;;;;;;21.98;12.80;;;;;;;;;;4934952;29;20516;-78
2022/12/16 03:19:07;;;;;;;30.33;16.50;;;;;;;;;;4934549;29;20039;-75
2022/12/16 03:21:49;;;;;;;38.13;19.92;;;;;;;;;;4934567;29;20442;-77
2022/12/16 03:24:15;;;;;;;38.33;19.92;;;;;;;;;;4918684;29;20136;-76
2022/12/16 03:26:59;;;;;;;31.85;18.90;;;;;;;;;;4934508;28;20114;-77
2022/12/16 03:29:49;;;;;;;42.13;23.60;;;;;;;;;;4933230;28;20062;-77
2022/12/16 03:32:43;;;;;;;49.80;26.27;;;;;;;;;;4934677;29;20375;-77
2022/12/16 03:35:46;;;;;;;50.17;27.08;;;;;;;;;;4924020;29;20032;-77
2022/12/16 03:38:13;;;;;;;54.33;27.77;;;;;;;;;;4930710;28;20134;-76
2022/12/16 03:40:41;;;;;;;37.95;22.70;;;;;;;;;;4930135;29;20058;-77
2022/12/16 03:43:10;;;;;;;48.42;26.98;;;;;;;;;;4932369;28;20481;-76
2022/12/16 03:45:41;;;;;;;54.10;27.80;;;;;;;;;;4931084;29;20387;-77
2022/12/16 03:48:09;;;;;;;83.22;30.88;;;;;;;;;;4932185;29;20817;-76
2022/12/16 03:50:37;;;;;;;82.72;31.55;;;;;;;;;;4932520;29;20023;-77
2022/12/16 03:53:04;;;;;;;93.90;38.00;;;;;;;;;;4930935;29;20039;-76
2022/12/16 03:55:30;;;;;;;113.07;34.72;;;;;;;;;;4933837;29;20027;-75
2022/12/16 03:57:56;;;;;;;62.13;32.40;;;;;;;;;;4932310;28;20028;-77
2022/12/16 04:00:22;;;;;;;65.07;30.80;;;;;;;;;;4931360;29;20098;-77
2022/12/16 04:02:48;;;;;;;65.65;27.33;;;;;;;;;;4944685;28;20039;-77
2022/12/16 04:05:15;;;;;;;45.28;26.35;;;;;;;;;;4938538;29;20035;-75
2022/12/16 04:07:40;;;;;;;143.48;31.63;;;;;;;;;;4943771;29;20047;-76
2022/12/16 04:10:07;;;;;;;93.05;32.03;;;;;;;;;;4933032;29;20102;-76
2022/12/16 04:27:23;;;;;;;62.75;30.38;;;;;;;;;;4932122;29;20051;-78
2022/12/16 04:29:16;;;;;;;103.60;32.00;;;;;;;;;;4932355;29;20480;-77
2022/12/16 04:31:42;;;;;;;81.88;28.90;;;;;;;;;;4931581;28;20051;-75
2022/12/16 04:34:26;;;;;;;84.97;28.13;;;;;;;;;;4930530;29;20039;-77
